Time;durP1;ratioP1;P1;durP2;ratioP2;P2;SDS_P1;SDS_P2;PMS_P1;PMS_P2;Temp;Humidity;BMP_temperature;BMP_pressure;BME280_temperature;BME280_humidity;BME280_pressure;Samples;Min_cycle;Max_cycle;Signal;HPM_P1;HPM_P2
2023/07/22 00:00:54;;;;;;;2.35;1.27;;;;;;;21.25;61.88;100532.09;10340083;28;96766;-87
2023/07/22 00:06:06;;;;;;;3.33;1.40;;;;;;;21.21;62.32;100527.97;10361777;28;96720;-87
2023/07/22 00:11:09;;;;;;;2.00;1.10;;;;;;;21.32;62.04;100524.44;10381152;28;96655;-86
2023/07/22 00:16:14;;;;;;;1.63;1.30;;;;;;;21.03;62.60;100524.03;10380892;28;96786;-86
2023/07/22 00:21:20;;;;;;;1.70;1.00;;;;;;;21.03;62.80;100518.69;10379702;28;96702;-87
2023/07/22 00:26:24;;;;;;;1.35;1.00;;;;;;;20.96;63.14;100521.94;10380534;28;96855;-86
2023/07/22 00:31:29;;;;;;;1.63;1.13;;;;;;;21.14;62.87;100509.78;10380703;28;96662;-87
2023/07/22 00:36:37;;;;;;;1.52;1.13;;;;;;;20.82;63.36;100500.75;10380068;28;96726;-87
2023/07/22 00:41:44;;;;;;;2.20;1.20;;;;;;;20.61;64.23;100513.13;10380444;28;97448;-87
2023/07/22 00:46:47;;;;;;;2.15;1.30;;;;;;;20.57;64.69;100511.66;10380202;28;96982;-86
2023/07/22 00:51:52;;;;;;;2.08;1.20;;;;;;;20.63;nan;100508.50;10379990;28;96874;-86
2023/07/22 00:56:57;;;;;;;1.70;1.00;;;;;;;20.85;63.70;100501.38;10354243;28;111079;-86
2023/07/22 01:02:00;;;;;;;2.08;1.13;;;;;;;20.59;64.21;100497.19;10338113;28;96881;-86
2023/07/22 01:07:24;;;;;;;2.00;1.10;;;;;;;20.49;64.35;100495.34;10338092;28;96774;-86
2023/07/22 01:12:45;;;;;;;1.73;1.20;;;;;;;20.33;64.86;100488.50;10341913;28;97109;-87
2023/07/22 01:17:50;;;;;;;2.00;1.17;;;;;;;20.40;64.67;100494.22;10378440;28;96785;-86
2023/07/22 01:22:55;;;;;;;2.78;1.00;;;;;;;20.18;65.47;100496.78;10378714;28;96789;-86
2023/07/22 01:27:58;;;;;;;1.80;0.98;;;;;;;20.25;65.01;100485.50;10378987;28;96731;-86
2023/07/22 01:33:01;;;;;;;1.83;1.13;;;;;;;20.26;64.96;100484.56;10339797;28;97106;-86
2023/07/22 01:38:07;;;;;;;2.85;1.30;;;;;;;20.19;65.41;100483.31;10337119;28;96765;-86
2023/07/22 01:43:11;;;;;;;1.73;1.20;;;;;;;20.38;65.14;100489.00;10337199;28;96975;-86
2023/07/22 01:48:14;;;;;;;2.17;1.30;;;;;;;20.56;64.58;100489.41;10335532;28;96864;-87
2023/07/22 01:53:20;;;;;;;2.50;1.35;;;;;;;20.64;64.38;100488.81;10336608;28;97046;-86
2023/07/22 01:58:24;;;;;;;3.13;1.27;;;;;;;20.39;65.23;100485.34;10336679;28;96853;-86
2023/07/22 02:03:29;;;;;;;1.70;1.17;;;;;;;20.44;65.23;100482.34;10337164;28;97385;-86
2023/07/22 02:08:36;;;;;;;;;;;;;;;20.61;66.03;100489.06;10336643;28;96744;-87
2023/07/22 02:13:40;;;;;;;1.63;1.30;;;;;;;20.61;64.78;100487.22;10356908;28;96848;-88
2023/07/22 02:18:44;;;;;;;2.75;1.27;;;;;;;20.51;65.29;100478.22;10376845;28;97473;-88
2023/07/22 02:23:51;;;;;;;2.33;1.60;;;;;;;20.26;66.36;100476.53;10377276;28;97038;-88
2023/07/22 02:28:55;;;;;;;2.83;1.40;;;;;;;20.43;65.35;100466.41;10377284;28;96703;-87
2023/07/22 02:33:59;;;;;;;2.40;1.23;;;;;;;20.31;65.43;100463.69;10377132;28;96764;-86
2023/07/22 02:39:09;;;;;;;2.75;1.70;;;;;;;20.03;66.72;100466.72;10374917;28;97080;-86
2023/07/22 02:44:13;;;;;;;2.17;1.48;;;;;;;20.26;65.70;100465.84;10376290;28;96927;-87
2023/07/22 02:49:17;;;;;;;2.20;1.52;;;;;;;20.17;65.86;100463.00;10305613;22;97372;-88
2023/07/22 02:54:22;;;;;;;1.75;1.25;;;;;;;19.97;66.55;100456.50;10252723;28;97097;-88
2023/07/22 02:59:25;;;;;;;3.95;1.60;;;;;;;19.93;66.82;100456.84;10252553;28;96789;-88
2023/07/22 03:04:29;;;;;;;3.13;1.30;;;;;;;19.89;66.61;100450.03;10252222;28;97231;-88
2023/07/22 03:09:34;;;;;;;2.97;1.47;;;;;;;19.88;66.34;100446.50;10252559;28;97584;-88
2023/07/22 03:14:37;;;;;;;3.42;1.60;;;;;;;19.92;66.50;100448.00;10252640;28;97961;-86
2023/07/22 03:19:40;;;;;;;2.50;1.27;;;;;;;19.92;66.20;100455.13;10257555;28;96637;-87
2023/07/22 03:24:46;;;;;;;2.47;1.40;;;;;;;19.79;67.04;100444.50;10258989;28;97251;-87
2023/07/22 03:29:49;;;;;;;2.42;1.33;;;;;;;19.83;66.79;100446.00;10257695;28;96779;-86
2023/07/22 03:34:53;;;;;;;2.60;1.50;;;;;;;19.89;66.43;100442.84;10258611;28;96646;-87
2023/07/22 03:39:58;;;;;;;2.00;1.35;;;;;;;19.95;66.33;100444.22;10258320;28;96749;-86
2023/07/22 03:45:01;;;;;;;2.40;1.55;;;;;;;19.88;66.60;100441.16;10258003;28;96862;-87
2023/07/22 03:50:05;;;;;;;2.33;1.70;;;;;;;20.04;66.27;100444.41;10256350;28;96740;-86
2023/07/22 03:55:10;;;;;;;2.88;1.65;;;;;;;20.05;66.23;100443.41;10257875;28;97006;-87
2023/07/22 04:00:14;;;;;;;2.13;1.35;;;;;;;20.07;66.14;100444.16;10257693;28;96856;-86
2023/07/22 04:05:17;;;;;;;1.95;1.45;;;;;;;19.77;66.92;100450.94;10258545;28;98121;-87
2023/07/22 04:10:22;;;;;;;2.42;1.52;;;;;;;19.84;66.81;100447.69;10257421;28;97029;-87
2023/07/22 04:15:25;;;;;;;1.90;1.50;;;;;;;19.71;67.03;100452.25;10257120;28;97344;-87
2023/07/22 04:20:28;;;;;;;2.45;1.65;;;;;;;19.76;67.14;100455.44;10255429;28;96905;-88
2023/07/22 04:25:33;;;;;;;2.67;1.58;;;;;;;19.73;67.30;100462.81;10257316;28;96665;-85
2023/07/22 04:30:37;;;;;;;2.00;1.48;;;;;;;19.64;67.45;100461.69;10256982;28;97397;-87
2023/07/22 04:35:42;;;;;;;4.10;1.37;;;;;;;19.64;67.55;100464.34;10256426;28;97171;-88
2023/07/22 04:41:05;;;;;;;2.35;1.48;;;;;;;19.64;67.58;100459.00;10250202;28;96698;-88
2023/07/22 04:46:08;;;;;;;2.38;1.60;;;;;;;19.65;67.24;100470.53;10255902;28;96797;-89
2023/07/22 04:51:12;;;;;;;1.67;1.33;;;;;;;19.67;67.47;100469.44;10256167;28;97110;-88
2023/07/22 04:56:17;;;;;;;2.05;1.65;;;;;;;19.32;68.86;100462.28;10256478;28;97994;-88
2023/07/22 05:01:21;;;;;;;2.55;1.60;;;;;;;19.31;68.90;100458.75;10256085;28;96786;-89
2023/07/22 05:06:24;;;;;;;3.22;1.48;;;;;;;19.31;68.75;100464.09;10255933;28;96876;-89
2023/07/22 05:11:30;;;;;;;4.50;1.60;;;;;;;19.42;68.19;100466.03;10254286;28;96792;-89
2023/07/22 05:16:51;;;;;;;2.25;1.55;;;;;;;19.32;68.41;100472.97;10253852;28;97072;-89
2023/07/22 05:21:54;;;;;;;2.13;1.42;;;;;;;19.19;69.20;100471.16;10255375;28;96679;-88
2023/07/22 05:27:18;;;;;;;2.53;1.50;;;;;;;19.31;68.85;100474.75;10253343;28;96694;-87
2023/07/22 05:32:21;;;;;;;3.13;1.90;;;;;;;19.33;68.70;100469.31;10255084;28;97295;-89
2023/07/22 05:37:35;;;;;;;3.38;1.80;;;;;;;19.38;68.55;100473.38;10255172;28;96951;-88
2023/07/22 05:42:41;;;;;;;2.55;1.63;;;;;;;19.31;69.63;100472.09;10250168;28;96740;-86
2023/07/22 05:47:44;;;;;;;2.67;1.65;;;;;;;19.01;71.00;100468.94;10251710;28;97804;-88
2023/07/22 05:52:47;;;;;;;2.75;1.85;;;;;;;18.90;71.55;100469.72;10254373;28;96579;-87
2023/07/22 05:57:52;;;;;;;3.13;1.88;;;;;;;18.93;71.33;100469.50;10253392;28;96704;-87
2023/07/22 06:02:55;;;;;;;;;;;;;;;18.96;71.74;100479.06;10253339;28;96628;-86
2023/07/22 06:07:59;;;;;;;2.65;1.52;;;;;;;19.07;70.66;100480.03;10254049;28;96963;-89
2023/07/22 06:13:03;;;;;;;3.53;1.67;;;;;;;19.22;70.27;100481.63;10254167;28;96728;-89
2023/07/22 06:18:08;;;;;;;2.67;1.75;;;;;;;19.24;71.00;100489.50;10253667;28;97063;-86
2023/07/22 06:23:12;;;;;;;3.10;1.52;;;;;;;19.36;70.69;100485.97;10253901;28;98075;-87
2023/07/22 06:28:17;;;;;;;2.97;1.92;;;;;;;19.38;70.56;100491.19;10253120;28;96689;-85
2023/07/22 06:33:21;;;;;;;4.30;1.83;;;;;;;19.49;70.43;100493.97;10253227;28;96763;-87
2023/07/22 06:38:25;;;;;;;3.03;1.83;;;;;;;19.55;70.34;100489.03;10253647;28;97352;-88
2023/07/22 06:43:32;;;;;;;2.47;1.52;;;;;;;19.62;70.20;100492.97;10253107;28;96810;-87
2023/07/22 06:48:36;;;;;;;4.90;2.10;;;;;;;19.88;69.47;100496.38;10252541;28;97166;-88
2023/07/22 06:53:40;;;;;;;;;;;;;;;20.04;69.40;100491.63;10256807;28;96845;-90
2023/07/22 06:58:47;;;;;;;2.33;1.55;;;;;;;20.07;68.91;100492.25;10259682;28;96705;-87
2023/07/22 07:03:50;;;;;;;4.80;2.58;;;;;;;20.25;68.47;100495.34;10259908;28;96891;-89
2023/07/22 07:08:55;;;;;;;2.28;1.65;;;;;;;20.42;67.89;100489.63;10259285;28;96810;-87
2023/07/22 07:14:01;;;;;;;2.45;1.63;;;;;;;20.58;67.39;100491.97;10259266;28;96661;-88
2023/07/22 07:19:22;;;;;;;3.00;1.98;;;;;;;20.68;67.57;100484.94;10257615;28;96755;-90
2023/07/22 07:24:27;;;;;;;3.08;1.70;;;;;;;20.85;66.43;100479.97;10258764;28;96743;-89
2023/07/22 07:29:49;;;;;;;2.47;1.55;;;;;;;21.08;65.87;100480.84;10255374;28;97000;-88
2023/07/22 07:34:57;;;;;;;3.50;1.67;;;;;;;21.30;66.22;100486.22;10258661;28;97779;-88
2023/07/22 07:40:03;;;;;;;2.95;1.50;;;;;;;21.50;65.20;100490.84;10259096;28;96849;-88
2023/07/22 07:45:10;;;;;;;2.80;2.08;;;;;;;21.51;64.58;100489.84;10257459;28;98516;-88
2023/07/22 07:50:13;;;;;;;2.03;1.50;;;;;;;21.86;63.62;100490.53;10257919;28;96854;-87
2023/07/22 07:55:16;;;;;;;3.33;1.90;;;;;;;22.09;63.31;100488.66;10258138;28;96935;-90
2023/07/22 08:00:21;;;;;;;2.95;1.85;;;;;;;22.42;62.55;100491.16;10257707;28;96842;-85
2023/07/22 08:05:24;;;;;;;2.65;1.52;;;;;;;22.58;62.11;100483.50;10257440;28;97053;-85
2023/07/22 08:10:27;;;;;;;2.27;1.53;;;;;;;22.83;61.47;100488.53;10257702;28;96616;-83
2023/07/22 08:15:32;;;;;;;2.67;1.60;;;;;;;23.02;61.08;100487.78;10257198;28;96802;-85
2023/07/22 08:20:54;;;;;;;2.70;1.60;;;;;;;23.41;60.47;100487.78;10254408;28;96744;-86
2023/07/22 08:25:57;;;;;;;3.30;1.92;;;;;;;23.48;60.16;100486.25;10257602;28;97726;-85
2023/07/22 08:31:02;;;;;;;3.60;1.70;;;;;;;23.51;59.08;100485.16;10256636;28;96746;-87
2023/07/22 08:36:05;;;;;;;1.98;1.40;;;;;;;23.88;58.75;100494.31;10255653;28;96721;-88
2023/07/22 08:41:09;;;;;;;2.63;1.70;;;;;;;24.03;57.97;100482.13;10256598;28;96695;-86
2023/07/22 08:46:14;;;;;;;2.00;1.77;;;;;;;24.42;57.18;100489.28;10255685;28;98269;-84
2023/07/22 08:51:19;;;;;;;3.17;1.73;;;;;;;24.40;57.11;100490.41;10256402;28;98318;-89
2023/07/22 08:56:22;;;;;;;3.70;2.08;;;;;;;24.51;56.33;100492.94;10255633;28;96767;-86
2023/07/22 09:01:27;;;;;;;3.50;1.80;;;;;;;24.62;55.80;100485.56;10255908;28;96726;-86
2023/07/22 09:06:31;;;;;;;2.65;1.65;;;;;;;24.78;54.70;100491.19;10255715;28;96797;-86
2023/07/22 09:11:35;;;;;;;2.60;1.70;;;;;;;25.11;54.07;100483.63;10255859;28;96757;-87
2023/07/22 09:16:40;;;;;;;2.35;1.60;;;;;;;25.18;53.88;100482.03;10254345;28;97820;-85
2023/07/22 09:21:45;;;;;;;3.88;1.73;;;;;;;25.47;52.76;100493.50;10255568;28;96712;-86
2023/07/22 09:26:48;;;;;;;3.13;1.65;;;;;;;25.69;51.61;100493.16;10253428;28;96894;-88
2023/07/22 09:32:10;;;;;;;2.00;1.40;;;;;;;25.72;50.06;100492.84;10248764;28;96594;-87
2023/07/22 09:37:14;;;;;;;3.28;1.60;;;;;;;25.96;48.98;100489.56;10254876;28;96822;-88
2023/07/22 09:42:25;;;;;;;2.97;1.90;;;;;;;26.10;47.80;100486.34;10254493;28;97370;-89
2023/07/22 09:47:30;;;;;;;3.95;1.73;;;;;;;26.56;47.08;100483.41;10254106;28;96894;-87
2023/07/22 09:52:33;;;;;;;2.95;1.80;;;;;;;26.70;46.40;100481.00;10254585;28;96886;-87
2023/07/22 09:57:37;;;;;;;2.72;1.88;;;;;;;26.69;44.90;100479.31;10254052;28;97812;-87
2023/07/22 10:02:47;;;;;;;2.42;1.55;;;;;;;26.91;44.17;100478.78;10254387;28;96862;-85
2023/07/22 10:07:53;;;;;;;2.80;1.60;;;;;;;27.06;43.28;100484.47;10254031;28;96654;-87
2023/07/22 10:12:57;;;;;;;2.10;1.40;;;;;;;27.13;42.46;100488.22;10253227;28;96816;-84
2023/07/22 10:18:20;;;;;;;2.30;1.45;;;;;;;27.10;41.07;100488.56;10249458;28;97405;-84
2023/07/22 10:23:26;;;;;;;3.00;1.63;;;;;;;27.48;41.49;100492.63;10253600;28;97132;-83
2023/07/22 10:28:30;;;;;;;2.75;1.58;;;;;;;27.64;40.71;100490.84;10258980;28;96664;-88
2023/07/22 10:33:52;;;;;;;2.47;1.67;;;;;;;28.05;40.13;100481.00;10260865;28;97179;-82
2023/07/22 10:39:00;;;;;;;2.92;1.67;;;;;;;28.22;39.32;100487.28;10260122;28;96720;-82
2023/07/22 10:44:12;;;;;;;2.60;1.45;;;;;;;28.22;40.33;100477.28;10259969;28;96863;-83
2023/07/22 10:49:18;;;;;;;2.65;1.55;;;;;;;28.28;39.77;100475.78;10259403;28;96918;-84
2023/07/22 10:54:33;;;;;;;3.17;1.60;;;;;;;28.51;38.94;100469.56;10260901;28;97274;-83
2023/07/22 10:59:39;;;;;;;2.80;1.70;;;;;;;28.82;41.26;100457.00;10259002;28;96838;-82
2023/07/22 11:04:44;;;;;;;2.83;1.92;;;;;;;28.68;40.31;100460.41;10259525;28;96713;-81
2023/07/22 11:09:58;;;;;;;2.55;1.60;;;;;;;28.87;40.92;100456.47;10258445;28;97915;-82
2023/07/22 11:15:05;;;;;;;2.80;1.50;;;;;;;28.71;40.79;100446.50;10259376;28;97003;-82
2023/07/22 11:20:11;;;;;;;2.92;2.05;;;;;;;28.60;40.79;100436.03;10258668;28;96930;-81
2023/07/22 11:25:18;;;;;;;3.30;1.92;;;;;;;29.00;40.68;100432.44;10258920;28;97942;-82
2023/07/22 11:30:24;;;;;;;2.20;1.48;;;;;;;29.50;40.48;100441.06;10258449;28;96801;-82
2023/07/22 11:35:46;;;;;;;2.57;1.77;;;;;;;29.78;39.58;100431.41;10254044;28;96691;-86
2023/07/22 11:40:50;;;;;;;3.33;1.88;;;;;;;30.04;39.24;100429.19;10257448;28;96584;-88
2023/07/22 11:46:11;;;;;;;2.90;1.77;;;;;;;30.29;39.87;100427.16;10244613;28;96709;-82
2023/07/22 11:51:33;;;;;;;;;;;;;;;30.40;38.05;100424.03;10258724;28;97270;-83
2023/07/22 11:56:40;;;;;;;2.85;1.83;;;;;;;30.63;39.15;100415.84;10257762;28;96794;-83
2023/07/22 12:01:45;;;;;;;2.47;1.67;;;;;;;30.91;38.69;100417.75;10256931;28;97214;-84
2023/07/22 12:06:49;;;;;;;3.58;1.70;;;;;;;30.87;38.82;100408.28;10257881;28;96639;-83
2023/07/22 12:11:58;;;;;;;;;;;;;;;30.82;39.39;100404.47;10256506;28;98462;-81
2023/07/22 12:17:01;;;;;;;2.97;1.80;;;;;;;31.11;38.68;100399.84;10254963;28;98398;-81
2023/07/22 12:22:05;;;;;;;2.70;1.88;;;;;;;31.22;38.56;100398.50;10256503;28;99166;-83
2023/07/22 12:27:10;;;;;;;3.08;1.65;;;;;;;31.44;38.44;100392.16;10270175;28;97298;-84
2023/07/22 12:32:31;;;;;;;2.60;1.98;;;;;;;31.28;38.36;100379.63;10250070;28;96732;-88
2023/07/22 12:37:35;;;;;;;3.38;1.88;;;;;;;31.24;38.09;100381.00;10254563;28;97322;-85
2023/07/22 12:42:40;;;;;;;2.53;1.73;;;;;;;31.61;38.37;100381.88;10263581;28;98512;-83
2023/07/22 12:47:44;;;;;;;2.67;1.77;;;;;;;31.60;37.96;100370.13;10262604;28;99101;-82
2023/07/22 12:52:47;;;;;;;2.72;1.90;;;;;;;31.50;37.63;100372.31;10252516;28;96807;-81
2023/07/22 12:57:52;;;;;;;2.92;1.95;;;;;;;31.84;37.37;100364.34;10281053;28;97173;-81
2023/07/22 13:02:56;;;;;;;2.75;2.05;;;;;;;31.90;36.88;100357.28;10241610;28;99084;-82
2023/07/22 13:08:01;;;;;;;3.10;2.10;;;;;;;31.54;36.63;100362.75;10260110;28;98912;-82
2023/07/22 13:13:06;;;;;;;3.90;2.28;;;;;;;31.71;36.83;100357.91;10266934;28;96851;-81
2023/07/22 13:18:10;;;;;;;2.70;1.75;;;;;;;31.80;36.83;100354.06;10249814;28;97589;-84
2023/07/22 13:23:14;;;;;;;2.97;2.05;;;;;;;32.12;36.76;100335.28;10255179;28;97488;-85
2023/07/22 13:28:18;;;;;;;3.58;2.13;;;;;;;32.13;35.59;100334.25;10256321;28;97558;-82
2023/07/22 13:33:22;;;;;;;3.13;2.00;;;;;;;32.15;36.31;100336.78;10251924;28;96807;-81
2023/07/22 13:38:25;;;;;;;2.80;1.98;;;;;;;32.28;35.42;100339.59;10261860;28;96946;-82
2023/07/22 13:43:48;;;;;;;3.10;2.03;;;;;;;32.52;35.25;100328.28;10245621;28;96891;-81
2023/07/22 13:48:51;;;;;;;3.15;1.80;;;;;;;32.47;34.58;100317.13;10232664;28;97443;-81
2023/07/22 13:53:54;;;;;;;2.85;2.10;;;;;;;32.39;35.27;100307.22;10253291;28;97374;-80
2023/07/22 13:59:01;;;;;;;2.95;2.00;;;;;;;32.38;34.75;100296.53;10250430;28;97536;-82
2023/07/22 14:04:22;;;;;;;3.47;2.28;;;;;;;32.46;34.56;100301.00;10263265;28;96786;-81
2023/07/22 14:09:25;;;;;;;3.78;2.33;;;;;;;32.81;34.39;100306.22;10281339;28;96957;-82
2023/07/22 14:14:30;;;;;;;3.50;2.22;;;;;;;32.71;33.90;100294.00;10268462;28;96904;-82
2023/07/22 14:19:33;;;;;;;5.47;2.80;;;;;;;32.73;34.83;100295.50;10250389;28;96905;-81
2023/07/22 14:24:37;;;;;;;3.63;2.20;;;;;;;32.71;34.38;100297.56;10204599;28;96770;-81
2023/07/22 14:29:42;;;;;;;3.53;2.40;;;;;;;32.93;34.67;100295.63;10212517;28;96882;-81
2023/07/22 14:34:45;;;;;;;3.25;2.22;;;;;;;32.85;34.42;100282.97;10216818;28;96803;-82
2023/07/22 14:39:49;;;;;;;3.45;2.25;;;;;;;32.83;34.97;100274.16;10210560;28;98433;-80
2023/07/22 14:45:11;;;;;;;3.38;2.45;;;;;;;33.21;35.02;100278.09;10209991;28;98450;-81
2023/07/22 14:50:15;;;;;;;3.25;2.30;;;;;;;32.36;36.01;100276.81;10204469;28;97557;-82
2023/07/22 14:55:18;;;;;;;3.28;2.38;;;;;;;32.31;36.09;100274.66;10215002;28;97039;-79
2023/07/22 15:00:23;;;;;;;4.00;2.50;;;;;;;32.32;36.86;100283.69;10208718;28;97493;-82
2023/07/22 15:05:44;;;;;;;3.17;2.30;;;;;;;32.35;36.96;100280.59;10205369;28;96740;-81
2023/07/22 15:10:47;;;;;;;4.00;2.15;;;;;;;32.49;36.35;100281.50;10206697;28;99500;-80
2023/07/22 15:20:57;;;;;;;3.38;2.53;;;;;;;31.80;36.31;100265.09;10174004;28;97007;-79
2023/07/22 15:26:00;;;;;;;3.97;2.33;;;;;;;31.93;37.16;100264.31;10184874;28;96831;-80
2023/07/22 15:31:03;;;;;;;3.20;2.13;;;;;;;31.84;36.65;100271.78;10182575;28;97638;-85
2023/07/22 15:36:08;;;;;;;3.08;2.10;;;;;;;31.82;37.43;100270.31;10177339;28;97232;-80
2023/07/22 15:41:11;;;;;;;3.17;1.92;;;;;;;31.67;37.07;100259.47;10175751;28;96997;-80
2023/07/22 15:46:14;;;;;;;;;;;;;;;31.52;37.06;100271.47;10177503;28;96967;-84
2023/07/22 15:51:36;;;;;;;3.90;2.38;;;;;;;31.65;37.34;100275.16;10167053;28;98716;-84
2023/07/22 15:56:39;;;;;;;3.00;2.25;;;;;;;31.54;37.21;100269.41;10169778;28;97582;-82
2023/07/22 16:01:43;;;;;;;3.20;2.30;;;;;;;31.45;37.25;100268.69;10165157;28;96828;-83
2023/07/22 16:06:47;;;;;;;4.50;2.38;;;;;;;31.00;38.13;100278.00;10173214;28;98649;-82
2023/07/22 16:11:51;;;;;;;3.67;1.90;;;;;;;30.99;38.57;100275.47;10179632;28;96732;-86
2023/07/22 16:16:54;;;;;;;3.45;2.30;;;;;;;30.86;38.08;100272.56;10177288;28;98946;-85
2023/07/22 16:22:16;;;;;;;3.38;2.28;;;;;;;30.69;38.51;100260.22;10165031;28;97249;-86
2023/07/22 16:27:19;;;;;;;2.60;1.83;;;;;;;30.62;38.87;100261.97;10172022;28;98021;-85
2023/07/22 16:32:42;;;;;;;3.22;2.00;;;;;;;30.55;38.89;100264.63;10173015;28;98365;-85
2023/07/22 16:37:47;;;;;;;6.15;2.30;;;;;;;30.51;38.27;100273.34;10184954;28;96804;-85
2023/07/22 16:42:50;;;;;;;3.08;1.98;;;;;;;30.39;39.26;100262.09;10175206;28;97582;-86
2023/07/22 16:47:53;;;;;;;;;;;;;;;30.21;39.43;100264.34;10161077;28;99056;-84
2023/07/22 16:53:15;;;;;;;2.97;1.92;;;;;;;30.22;39.19;100263.31;10174735;28;98390;-85
2023/07/22 16:58:19;;;;;;;3.03;1.85;;;;;;;30.05;39.51;100254.47;10172845;28;97977;-87
2023/07/22 17:03:22;;;;;;;;;;;;;;;30.00;39.73;100256.03;10185077;28;96859;-84
2023/07/22 17:08:27;;;;;;;3.80;2.20;;;;;;;29.90;40.01;100260.91;10180259;28;98717;-88
2023/07/22 17:29:45;;;;;;;3.50;2.20;;;;;;;29.68;39.79;100259.88;10446442;27;96882;-89
2023/07/22 17:34:49;;;;;;;2.97;1.88;;;;;;;29.79;40.09;100261.31;10410221;27;96827;-88
2023/07/22 17:39:54;;;;;;;130.73;107.28;;;;;;;29.95;39.72;100256.56;10407299;27;97106;-86
2023/07/22 17:45:16;;;;;;;795.17;589.50;;;;;;;30.08;40.11;100259.50;10389346;27;96898;-86
2023/07/22 17:50:19;;;;;;;22.98;20.55;;;;;;;29.85;40.25;100263.31;10405695;27;98793;-87
2023/07/22 17:55:22;;;;;;;;;;;;;;;29.67;40.31;100268.22;10408571;27;99401;-80
2023/07/22 18:00:27;;;;;;;8.80;7.65;;;;;;;29.93;40.32;100271.38;10418458;27;96858;-85
2023/07/22 18:05:30;;;;;;;3.85;3.10;;;;;;;29.77;40.93;100269.66;10418402;28;96950;-82
2023/07/22 18:10:33;;;;;;;;;;;;;;;29.83;41.22;100271.63;10421047;28;98637;-86
2023/07/22 18:15:38;;;;;;;3.75;2.95;;;;;;;29.86;40.80;100279.41;10423592;27;97954;-88
2023/07/22 18:20:43;;;;;;;6.25;4.15;;;;;;;29.77;41.11;100275.06;10421512;27;96829;-84
2023/07/22 18:25:46;;;;;;;;;;;;;;;29.83;41.21;100277.03;10420621;28;100187;-88
2023/07/22 18:30:52;;;;;;;3.63;2.60;;;;;;;29.56;41.25;100279.47;10419247;28;96867;-82
2023/07/22 18:36:14;;;;;;;5.80;3.50;;;;;;;29.62;41.45;100282.34;10414263;28;97206;-87
2023/07/22 18:41:34;;;;;;;482.33;361.08;;;;;;;29.39;41.64;100288.72;10366219;28;97367;-86
2023/07/22 18:46:40;;;;;;;155.48;122.60;;;;;;;29.12;42.06;100290.94;10391758;28;96824;-87
2023/07/22 18:51:43;;;;;;;107.28;84.00;;;;;;;28.97;42.43;100289.16;10389906;28;96796;-86
2023/07/22 18:56:46;;;;;;;16.98;15.23;;;;;;;29.05;42.48;100294.53;10393181;28;96953;-84
2023/07/22 19:02:08;;;;;;;6.53;4.68;;;;;;;28.77;42.35;100296.84;10375667;28;98701;-86
2023/07/22 19:07:12;;;;;;;4.00;2.80;;;;;;;28.70;42.56;100295.88;10389187;28;96886;-86
2023/07/22 19:12:33;;;;;;;4.70;3.10;;;;;;;28.71;42.66;100300.25;10387695;28;96811;-87
2023/07/22 19:17:38;;;;;;;4.75;3.00;;;;;;;28.40;43.05;100306.59;10390622;28;97505;-86
2023/07/22 19:22:58;;;;;;;4.28;2.78;;;;;;;28.24;43.37;100307.44;10388501;28;96729;-87
2023/07/22 19:28:01;;;;;;;3.22;2.20;;;;;;;28.01;43.30;100315.41;10387732;28;97143;-86
2023/07/22 19:33:06;;;;;;;4.82;2.28;;;;;;;27.96;43.78;100319.69;10386550;28;96873;-84
2023/07/22 19:38:09;;;;;;;3.70;2.03;;;;;;;27.75;43.92;100322.03;10389855;28;96786;-86
2023/07/22 19:43:13;;;;;;;3.85;1.95;;;;;;;27.61;44.21;100336.19;10390166;28;97564;-87
2023/07/22 19:48:17;;;;;;;3.25;2.17;;;;;;;27.34;44.55;100331.91;10389316;28;96736;-85
2023/07/22 19:53:21;;;;;;;4.07;2.38;;;;;;;27.11;45.05;100347.06;10391243;28;96751;-85
2023/07/22 19:58:25;;;;;;;5.05;2.78;;;;;;;27.07;45.37;100343.00;10389373;28;96909;-87
2023/07/22 20:03:30;;;;;;;3.60;2.13;;;;;;;27.01;45.14;100343.59;10392344;28;96958;-86
2023/07/22 20:08:34;;;;;;;3.70;1.80;;;;;;;26.76;46.07;100345.38;10390072;28;97546;-86
2023/07/22 20:13:37;;;;;;;4.05;1.90;;;;;;;26.83;45.88;100350.97;10386103;28;97272;-85
2023/07/22 20:18:42;;;;;;;3.92;2.03;;;;;;;26.60;46.70;100357.91;10382772;28;97046;-88
2023/07/22 20:23:48;;;;;;;3.65;2.22;;;;;;;26.51;46.97;100367.81;10384063;28;96770;-86
2023/07/22 20:28:51;;;;;;;5.15;2.42;;;;;;;26.22;47.70;100375.34;10376492;28;98306;-83
2023/07/22 20:33:56;;;;;;;3.97;2.30;;;;;;;26.26;48.08;100376.75;10370221;28;98981;-88
2023/07/22 20:39:00;;;;;;;3.95;2.28;;;;;;;26.14;48.35;100380.69;10372417;28;97715;-85
2023/07/22 20:44:20;;;;;;;3.90;2.22;;;;;;;26.12;48.16;100387.22;10366726;28;96874;-84
2023/07/22 20:49:25;;;;;;;4.00;2.13;;;;;;;25.94;48.89;100395.34;10366792;28;97122;-85
2023/07/22 20:54:28;;;;;;;4.50;2.28;;;;;;;25.84;49.22;100395.44;10377146;28;96818;-85
2023/07/22 20:59:31;;;;;;;2.73;1.80;;;;;;;25.78;49.16;100419.44;10377427;28;97135;-86
2023/07/22 21:04:36;;;;;;;3.13;2.03;;;;;;;25.59;49.67;100416.84;10374202;28;98054;-85
2023/07/22 21:09:40;;;;;;;3.22;2.20;;;;;;;25.58;50.05;100421.41;10376775;28;98683;-85
2023/07/22 21:14:43;;;;;;;4.00;2.33;;;;;;;25.39;50.39;100426.06;10376307;28;96900;-85
2023/07/22 21:19:49;;;;;;;2.60;1.90;;;;;;;25.26;50.74;100426.41;10376944;28;96748;-85
2023/07/22 21:24:52;;;;;;;4.25;1.98;;;;;;;25.14;51.10;100435.69;10376960;28;96847;-86
2023/07/22 21:29:55;;;;;;;5.27;2.40;;;;;;;25.03;51.46;100445.81;10378306;28;96898;-86
2023/07/22 21:35:00;;;;;;;4.57;2.37;;;;;;;24.87;51.86;100440.16;10376948;28;98200;-86
2023/07/22 21:40:05;;;;;;;3.85;2.00;;;;;;;24.87;51.76;100443.72;10377063;28;96793;-86
2023/07/22 21:45:10;;;;;;;3.20;1.98;;;;;;;24.72;52.08;100442.47;10374614;28;96854;-86
2023/07/22 21:50:15;;;;;;;4.13;2.28;;;;;;;24.54;52.77;100444.22;10370323;28;98942;-87
2023/07/22 21:55:36;;;;;;;5.88;2.28;;;;;;;24.40;53.22;100448.22;10364609;28;97135;-85
2023/07/22 22:00:39;;;;;;;6.07;2.37;;;;;;;24.35;53.39;100446.94;10360422;28;98459;-86
2023/07/22 22:05:44;;;;;;;3.97;2.07;;;;;;;24.24;53.65;100447.91;10373139;28;97163;-85
2023/07/22 22:10:47;;;;;;;3.85;2.55;;;;;;;24.25;53.37;100452.31;10375090;28;96758;-85
2023/07/22 22:15:51;;;;;;;3.25;2.13;;;;;;;24.05;53.88;100445.22;10379599;28;97184;-85
2023/07/22 22:21:13;;;;;;;4.38;2.38;;;;;;;24.04;54.24;100454.28;10375161;28;99042;-85
2023/07/22 22:26:16;;;;;;;4.15;2.28;;;;;;;23.86;54.65;100452.44;10379677;28;97347;-87
2023/07/22 22:31:20;;;;;;;4.13;2.23;;;;;;;23.86;54.74;100450.59;10379378;28;97849;-83
2023/07/22 22:36:24;;;;;;;3.97;2.40;;;;;;;23.79;54.97;100462.06;10382228;28;97347;-84
2023/07/22 22:41:27;;;;;;;3.78;2.20;;;;;;;23.66;55.25;100462.31;10379551;28;96789;-84
2023/07/22 22:46:32;;;;;;;4.05;2.25;;;;;;;23.54;55.70;100461.59;10375686;28;98805;-84
2023/07/22 22:51:37;;;;;;;3.63;2.20;;;;;;;23.46;55.86;100464.06;10371632;28;98203;-88
2023/07/22 22:56:40;;;;;;;2.55;1.92;;;;;;;23.49;55.97;100454.88;10374658;28;98937;-76
2023/07/22 23:01:43;;;;;;;4.40;2.37;;;;;;;23.48;55.84;100470.13;10372063;28;96699;-76
2023/07/22 23:06:48;;;;;;;5.00;2.33;;;;;;;23.43;55.85;100468.84;10381622;28;96817;-76
2023/07/22 23:11:52;;;;;;;4.10;2.17;;;;;;;23.34;56.40;100466.97;10369158;28;97047;-76
2023/07/22 23:16:55;;;;;;;5.73;2.53;;;;;;;23.27;56.24;100464.00;10381584;28;96627;-76
2023/07/22 23:22:00;;;;;;;4.88;2.28;;;;;;;23.29;56.31;100462.03;10381036;28;97781;-76
2023/07/22 23:27:03;;;;;;;4.13;2.22;;;;;;;22.96;57.31;100456.06;10380516;28;97094;-76
2023/07/22 23:32:24;;;;;;;6.45;2.47;;;;;;;23.12;56.88;100462.66;10379586;28;96544;-76
2023/07/22 23:37:29;;;;;;;6.17;2.47;;;;;;;22.96;57.33;100456.06;10381317;28;96987;-76
2023/07/22 23:42:32;;;;;;;6.13;2.55;;;;;;;22.92;57.45;100446.63;10378995;28;96642;-76
2023/07/22 23:47:36;;;;;;;5.20;2.33;;;;;;;22.82;57.51;100449.22;10378134;28;97792;-76
2023/07/22 23:52:40;;;;;;;3.90;2.43;;;;;;;22.73;57.65;100447.34;10376832;28;99367;-76